KASH

Boire Field Airport

Nashua, New Hampshire, USA
METAR KASH 182056Z 33008KT 10SM -RA SCT037 BKN049 BKN070 24/21 A2981 RMK AO2 RAB53 SLP101 6//// T02390211 53003 PNO $
Observed Flight Rules
Aug-18 @ 20:56 UTC (59 minutes ago) Visual Flight Rules
Wind Visibility Clouds Conditions
330° at 8 knots 10 miles
  • Scattered at 3,700' AGL
  • Broken at 4,900' AGL
  • Broken at 7,000' AGL
  • Light Rain
Temperatures Readings
Current 24°C / 75°F
Dewpoint 21°C / 70°F
Humidity 83%
Altimeter 29.81" Hg
Pressure 1010.1 hPa
Elevation 61
METAR KASH 182056Z 33008KT 10SM -RA SCT037 BKN049 BKN070 24/21 A2981 RMK AO2 RAB53 SLP101 6//// T02390211 53003 PNO $
Observed Flight Rules
Aug-18 @ 20:56 UTC
(59 minutes ago)
VFR
Wind Visibility
330° at 8 knots 10 miles
Clouds
  • Scattered at 3,700' AGL
  • Broken at 4,900' AGL
  • Broken at 7,000' AGL
Conditions
  • Light Rain
Temperature Dewpoint
24°C / 75°F 21°C / 70°F
Humidity Altimeter Pressure
83% 29.81" Hg 1010.1 hPa